Time;durP1;ratioP1;P1;durP2;ratioP2;P2;SDS_P1;SDS_P2;PMS_P1;PMS_P2;Temp;Humidity;BMP_temperature;BMP_pressure;BME280_temperature;BME280_humidity;BME280_pressure;Samples;Min_cycle;Max_cycle;Signal;HPM_P1;HPM_P2
2023/03/29 00:02:16;;;;;;;7.50;6.00;;;6.90;95.50;;;;;;4995461;28;20361;-81
2023/03/29 00:04:42;;;;;;;8.20;5.88;;;6.90;95.50;;;;;;4994933;28;20073;-81
2023/03/29 00:07:08;;;;;;;11.55;8.57;;;6.90;95.50;;;;;;4989662;28;20026;-82
2023/03/29 00:09:34;;;;;;;11.82;6.80;;;6.90;95.60;;;;;;4999470;28;20093;-82
2023/03/29 00:12:00;;;;;;;8.02;6.57;;;6.90;95.50;;;;;;4996869;28;20053;-81
2023/03/29 00:14:28;;;;;;;8.02;5.63;;;6.90;95.40;;;;;;4998106;28;20038;-82
2023/03/29 00:16:54;;;;;;;8.10;5.95;;;6.90;95.40;;;;;;4995820;28;20042;-82
2023/03/29 00:19:20;;;;;;;7.85;6.35;;;6.90;95.30;;;;;;5010214;28;20022;-81
2023/03/29 00:21:46;;;;;;;9.45;5.85;;;6.90;95.30;;;;;;4995730;28;20136;-82
2023/03/29 00:24:11;;;;;;;9.20;6.47;;;6.90;95.30;;;;;;4995845;28;20076;-81
2023/03/29 00:26:37;;;;;;;8.10;6.00;;;7.00;95.30;;;;;;4998685;28;20040;-81
2023/03/29 00:29:03;;;;;;;11.38;6.22;;;7.00;95.20;;;;;;5002930;28;20054;-82
2023/03/29 00:31:30;;;;;;;6.93;5.97;;;7.00;95.10;;;;;;5001900;28;20037;-82
2023/03/29 00:33:56;;;;;;;6.82;6.05;;;7.10;95.00;;;;;;4987933;28;20392;-82
2023/03/29 00:36:22;;;;;;;8.68;6.57;;;7.10;94.90;;;;;;4998119;28;20031;-82
2023/03/29 00:38:48;;;;;;;12.00;6.30;;;7.10;94.80;;;;;;4995924;28;20052;-81
2023/03/29 00:41:14;;;;;;;13.25;5.70;;;7.10;94.80;;;;;;5002455;28;20022;-81
2023/03/29 00:43:55;;;;;;;9.63;5.97;;;7.10;94.60;;;;;;4999537;28;20029;-81
2023/03/29 00:46:22;;;;;;;9.93;5.47;;;7.10;94.60;;;;;;4995293;28;20037;-81
2023/03/29 00:48:50;;;;;;;8.63;5.38;;;7.00;94.50;;;;;;5010437;28;20022;-81
2023/03/29 00:51:18;;;;;;;7.03;5.38;;;7.00;94.60;;;;;;5000005;28;20061;-81
2023/03/29 00:53:52;;;;;;;11.48;5.97;;;6.90;94.50;;;;;;4986024;28;20027;-80
2023/03/29 00:56:23;;;;;;;10.65;5.95;;;6.90;94.60;;;;;;4997156;28;20498;-81
2023/03/29 00:59:16;;;;;;;6.65;5.35;;;6.80;94.70;;;;;;5004746;28;20427;-82
2023/03/29 01:02:06;;;;;;;14.80;5.85;;;6.80;94.70;;;;;;4998151;28;20459;-79
2023/03/29 01:04:36;;;;;;;10.60;5.45;;;6.80;94.70;;;;;;4996139;28;20029;-81
2023/03/29 01:07:08;;;;;;;6.28;4.63;;;6.70;94.80;;;;;;5000701;28;20038;-80
2023/03/29 01:09:38;;;;;;;6.05;5.15;;;6.60;94.90;;;;;;5008986;28;20025;-80
2023/03/29 01:12:15;;;;;;;6.38;5.68;;;6.60;95.00;;;;;;5002162;28;20026;-80
2023/03/29 01:15:07;;;;;;;6.47;4.65;;;6.60;95.00;;;;;;5014474;28;20042;-79
2023/03/29 01:17:33;;;;;;;9.55;5.05;;;6.60;95.00;;;;;;4998441;28;20047;-80
2023/03/29 01:20:16;;;;;;;8.75;5.03;;;6.60;95.10;;;;;;4996128;28;20026;-79
2023/03/29 01:23:15;;;;;;;8.77;6.32;;;6.70;95.00;;;;;;4997972;28;20476;-81
2023/03/29 01:25:55;;;;;;;7.32;5.00;;;6.70;94.90;;;;;;4985372;28;20101;-82
2023/03/29 01:28:28;;;;;;;8.48;6.28;;;6.60;94.90;;;;;;4993788;28;20149;-80
2023/03/29 01:31:09;;;;;;;6.32;5.53;;;6.60;94.90;;;;;;4993238;28;20083;-80
2023/03/29 01:33:45;;;;;;;6.72;4.80;;;6.50;95.20;;;;;;4993301;28;20387;-81
2023/03/29 01:36:26;;;;;;;7.35;4.95;;;6.40;95.20;;;;;;4994052;28;20114;-81
2023/03/29 01:39:02;;;;;;;10.60;6.35;;;6.40;95.30;;;;;;4984564;28;20026;-81
2023/03/29 01:42:07;;;;;;;8.18;5.47;;;6.40;95.40;;;;;;4994344;28;20499;-82
2023/03/29 01:44:48;;;;;;;5.20;4.35;;;6.40;95.40;;;;;;4989981;28;20034;-82
2023/03/29 01:47:39;;;;;;;8.93;5.50;;;6.40;95.40;;;;;;4984274;28;20595;-80
2023/03/29 01:50:35;;;;;;;7.93;5.25;;;6.40;95.40;;;;;;4990684;28;20034;-80
2023/03/29 01:53:16;;;;;;;7.43;5.00;;;6.50;95.40;;;;;;4994444;28;20089;-80
2023/03/29 01:55:48;;;;;;;7.38;4.60;;;6.50;95.40;;;;;;5006019;28;20508;-80
2023/03/29 01:58:17;;;;;;;8.27;5.13;;;6.60;95.30;;;;;;5009341;28;20042;-78
2023/03/29 02:00:44;;;;;;;6.00;5.20;;;6.60;95.20;;;;;;4999415;28;20383;-81
2023/03/29 02:03:13;;;;;;;8.32;5.90;;;6.70;95.20;;;;;;4996888;28;20033;-81
2023/03/29 02:05:41;;;;;;;7.57;4.78;;;6.70;95.10;;;;;;4980945;28;20034;-80
2023/03/29 02:08:10;;;;;;;7.82;5.32;;;6.70;95.10;;;;;;4997279;28;20030;-82
2023/03/29 02:10:37;;;;;;;7.35;5.65;;;6.60;95.30;;;;;;4992257;28;20023;-82
2023/03/29 02:13:04;;;;;;;6.82;4.80;;;6.60;95.10;;;;;;4998204;28;20030;-82
2023/03/29 02:15:30;;;;;;;6.53;4.55;;;6.60;95.10;;;;;;5001047;28;20476;-80
2023/03/29 02:17:59;;;;;;;9.88;5.25;;;6.60;95.20;;;;;;5002848;28;20028;-80
2023/03/29 02:20:48;;;;;;;8.43;4.90;;;6.60;95.20;;;;;;4999718;28;20026;-80
2023/03/29 02:23:35;;;;;;;7.25;4.80;;;6.60;95.20;;;;;;5007849;28;20475;-80
2023/03/29 02:26:02;;;;;;;6.22;5.00;;;6.60;95.20;;;;;;4990519;28;20454;-80
2023/03/29 02:28:29;;;;;;;;;;;6.60;95.20;;;;;;4996859;28;20053;-84
2023/03/29 02:31:13;;;;;;;5.63;4.50;;;6.60;95.10;;;;;;4997192;28;20012;-81
2023/03/29 02:34:03;;;;;;;6.75;5.75;;;6.60;95.20;;;;;;4985394;28;20026;-81
2023/03/29 02:36:37;;;;;;;13.20;5.90;;;6.60;95.30;;;;;;4996391;28;20030;-81
2023/03/29 02:39:04;;;;;;;6.82;4.90;;;6.60;95.30;;;;;;4997462;28;20356;-82
2023/03/29 02:41:31;;;;;;;6.10;5.03;;;6.60;95.30;;;;;;4997678;28;20019;-81
2023/03/29 02:44:00;;;;;;;9.73;5.65;;;6.70;95.30;;;;;;4996515;28;20092;-81
2023/03/29 02:46:26;;;;;;;6.85;5.22;;;6.70;95.20;;;;;;5001905;28;20030;-82
2023/03/29 02:48:54;;;;;;;12.23;5.65;;;6.70;95.20;;;;;;4997205;28;20049;-81
2023/03/29 02:51:29;;;;;;;8.55;5.25;;;6.70;95.20;;;;;;5014698;28;20399;-81
2023/03/29 02:54:12;;;;;;;9.13;5.70;;;6.70;95.20;;;;;;5008792;28;20050;-82
2023/03/29 02:56:43;;;;;;;9.07;5.85;;;6.70;95.20;;;;;;4999683;28;20054;-83
2023/03/29 02:59:11;;;;;;;8.60;5.72;;;6.70;95.20;;;;;;4995236;28;20190;-82
2023/03/29 03:01:38;;;;;;;6.47;4.95;;;6.70;95.10;;;;;;4998889;28;20110;-81
2023/03/29 03:04:04;;;;;;;6.68;5.57;;;6.80;95.10;;;;;;4995567;28;20204;-82
2023/03/29 03:06:30;;;;;;;7.13;4.95;;;6.80;95.10;;;;;;5018410;28;20077;-83
2023/03/29 03:08:56;;;;;;;8.88;5.63;;;6.90;95.00;;;;;;5000824;28;20030;-82
2023/03/29 03:11:22;;;;;;;6.47;5.57;;;6.90;94.90;;;;;;4998362;28;20030;-82
2023/03/29 03:13:48;;;;;;;8.80;5.47;;;6.90;94.80;;;;;;5006431;28;20476;-82
2023/03/29 03:16:14;;;;;;;6.78;4.97;;;7.00;94.70;;;;;;4996669;28;20176;-84
2023/03/29 03:18:42;;;;;;;6.70;4.90;;;7.00;94.60;;;;;;5000441;28;20022;-81
2023/03/29 03:21:08;;;;;;;7.10;4.78;;;7.00;94.60;;;;;;4997774;28;20583;-81
2023/03/29 03:23:34;;;;;;;7.55;5.32;;;7.00;94.50;;;;;;4996055;28;20101;-81
2023/03/29 03:26:00;;;;;;;8.35;5.55;;;7.00;94.50;;;;;;4994459;28;20022;-80
2023/03/29 03:28:26;;;;;;;12.77;6.05;;;7.10;94.40;;;;;;4995536;28;20019;-81
2023/03/29 03:30:53;;;;;;;9.85;6.07;;;7.10;94.30;;;;;;4995170;28;20392;-80
2023/03/29 03:33:19;;;;;;;10.43;5.55;;;7.10;94.30;;;;;;4995482;28;20085;-81
2023/03/29 03:35:46;;;;;;;8.20;5.45;;;7.10;94.30;;;;;;4994022;28;20136;-81
2023/03/29 03:38:12;;;;;;;6.53;4.90;;;7.10;94.30;;;;;;4995638;28;20146;-82
2023/03/29 03:40:38;;;;;;;7.90;5.50;;;7.10;94.30;;;;;;4995938;28;20026;-80
2023/03/29 03:43:04;;;;;;;12.00;6.75;;;7.10;94.30;;;;;;5002371;28;20141;-80
2023/03/29 03:45:30;;;;;;;7.50;5.53;;;7.10;94.40;;;;;;5014638;28;20022;-80
2023/03/29 03:47:56;;;;;;;7.35;5.88;;;7.10;94.40;;;;;;5018920;28;20027;-80
2023/03/29 03:50:23;;;;;;;7.75;5.78;;;7.10;94.30;;;;;;5008771;28;20022;-81
2023/03/29 03:52:49;;;;;;;13.38;6.90;;;7.10;94.30;;;;;;4995791;28;20034;-81
2023/03/29 03:55:15;;;;;;;10.90;7.80;;;7.10;94.50;;;;;;4995530;28;20035;-80
2023/03/29 03:57:41;;;;;;;8.90;6.63;;;7.10;94.30;;;;;;4996846;28;20028;-81
2023/03/29 04:00:17;;;;;;;11.50;7.72;;;7.20;94.30;;;;;;5002872;28;20025;-81
2023/03/29 04:02:45;;;;;;;8.57;6.13;;;7.20;94.30;;;;;;4995743;28;20434;-81
2023/03/29 04:05:11;;;;;;;7.30;6.25;;;7.30;94.20;;;;;;4994734;28;20022;-81
2023/03/29 04:07:37;;;;;;;11.23;6.22;;;7.30;94.10;;;;;;4992859;28;20038;-81
2023/03/29 04:10:05;;;;;;;9.45;6.50;;;7.30;94.10;;;;;;4995639;28;20109;-80
2023/03/29 04:12:31;;;;;;;10.07;7.18;;;7.40;93.90;;;;;;4994579;28;20495;-81
2023/03/29 04:14:56;;;;;;;13.00;6.68;;;7.40;93.90;;;;;;4992832;28;20125;-81
2023/03/29 04:17:22;;;;;;;9.90;5.78;;;7.40;94.10;;;;;;5000552;28;20034;-81
2023/03/29 04:19:48;;;;;;;7.07;5.32;;;7.50;93.70;;;;;;4997311;28;20032;-80
2023/03/29 04:22:14;;;;;;;11.25;7.43;;;7.50;93.60;;;;;;5012069;28;20026;-81
2023/03/29 04:24:40;;;;;;;10.85;6.70;;;7.50;93.60;;;;;;5005763;28;20033;-80
2023/03/29 04:27:07;;;;;;;11.45;6.80;;;7.60;93.60;;;;;;4995906;28;20144;-81
2023/03/29 04:29:32;;;;;;;12.77;7.78;;;7.60;93.50;;;;;;4994446;28;20038;-81
2023/03/29 04:31:58;;;;;;;10.88;6.28;;;7.70;93.50;;;;;;4999452;28;20083;-80
2023/03/29 04:34:24;;;;;;;12.13;6.18;;;7.70;93.20;;;;;;5000514;28;20034;-81
2023/03/29 04:36:50;;;;;;;11.35;7.55;;;7.70;93.10;;;;;;4995217;28;20476;-81
2023/03/29 04:39:19;;;;;;;12.75;6.15;;;7.80;93.10;;;;;;4997618;28;20035;-81
2023/03/29 04:41:46;;;;;;;10.57;6.15;;;7.90;93.00;;;;;;5000056;28;20062;-82
2023/03/29 04:44:13;;;;;;;9.27;5.75;;;7.90;92.80;;;;;;5000490;28;20046;-80
2023/03/29 04:46:39;;;;;;;9.18;6.75;;;7.90;92.70;;;;;;5000199;28;20057;-83
2023/03/29 04:49:06;;;;;;;14.50;6.43;;;7.80;92.70;;;;;;4993639;28;20109;-81
2023/03/29 04:51:32;;;;;;;11.13;5.28;;;7.90;92.70;;;;;;4995871;28;20031;-81
2023/03/29 04:53:59;;;;;;;9.05;5.85;;;7.90;92.60;;;;;;4993713;28;20026;-80
2023/03/29 04:56:25;;;;;;;14.80;5.45;;;7.80;92.50;;;;;;4993609;28;20049;-80
2023/03/29 04:58:51;;;;;;;11.40;6.33;;;7.90;92.60;;;;;;4989347;28;20053;-80
2023/03/29 05:01:17;;;;;;;9.65;5.03;;;7.80;92.50;;;;;;4995237;28;20518;-81
2023/03/29 05:03:51;;;;;;;11.20;5.38;;;7.90;92.40;;;;;;4992948;28;20479;-81
2023/03/29 05:06:29;;;;;;;12.95;6.13;;;8.00;92.50;;;;;;4993641;28;20098;-82
2023/03/29 05:09:41;;;;;;;13.30;6.88;;;8.10;92.30;;;;;;4993826;28;20038;-82
2023/03/29 05:12:57;;;;;;;;;;;;;;;;;;;;;
2023/03/29 05:19:16;;;;;;;13.25;6.13;;;8.50;91.80;;;;;;4997337;28;20056;-79
2023/03/29 05:22:38;;;;;;;12.35;5.97;;;8.50;91.60;;;;;;4988863;28;20042;-78
2023/03/29 05:25:32;;;;;;;13.45;7.10;;;8.50;91.50;;;;;;4995706;28;20038;-79
2023/03/29 05:31:46;;;;;;;17.27;6.03;;;8.60;91.30;;;;;;4972757;28;20038;-80
2023/03/29 05:34:12;;;;;;;12.82;5.82;;;8.60;91.60;;;;;;4969801;28;20030;-78
2023/03/29 05:36:38;;;;;;;11.43;5.55;;;8.70;91.30;;;;;;4994636;28;20092;-79
2023/03/29 05:39:05;;;;;;;15.52;6.20;;;8.70;91.40;;;;;;4993775;28;20027;-80
2023/03/29 05:41:31;;;;;;;12.95;5.80;;;8.80;90.90;;;;;;4985622;28;20113;-80
2023/03/29 05:43:57;;;;;;;8.38;5.10;;;8.90;90.90;;;;;;4992008;28;20455;-81
2023/03/29 05:46:29;;;;;;;6.90;5.35;;;9.00;90.70;;;;;;4993056;28;20066;-80
2023/03/29 05:49:25;;;;;;;17.95;5.68;;;9.20;90.40;;;;;;4993079;28;20018;-80
2023/03/29 05:54:51;;;;;;;9.65;5.78;;;9.30;89.80;;;;;;4956351;28;20805;-80
2023/03/29 05:57:20;;;;;;;11.35;5.65;;;9.40;89.70;;;;;;4991805;28;20027;-82
2023/03/29 05:59:50;;;;;;;13.23;5.50;;;9.40;89.10;;;;;;4993483;28;20448;-81
2023/03/29 06:02:19;;;;;;;9.20;6.05;;;9.50;88.90;;;;;;4993063;28;20033;-82
2023/03/29 06:04:50;;;;;;;16.65;6.35;;;9.50;89.20;;;;;;4991996;28;20045;-82
2023/03/29 06:07:23;;;;;;;12.18;5.88;;;9.60;88.80;;;;;;4993264;28;20093;-81
2023/03/29 06:09:57;;;;;;;15.02;6.32;;;9.60;88.30;;;;;;4993055;28;20034;-79
2023/03/29 06:12:24;;;;;;;10.23;5.70;;;9.50;88.40;;;;;;4995589;28;20099;-81
2023/03/29 06:14:50;;;;;;;15.02;5.70;;;9.50;88.40;;;;;;4997048;28;20079;-79
2023/03/29 06:17:16;;;;;;;13.30;5.30;;;9.50;88.50;;;;;;4995256;28;20042;-81
2023/03/29 06:19:43;;;;;;;12.27;5.72;;;9.50;88.30;;;;;;4994442;28;20038;-81
2023/03/29 06:22:15;;;;;;;12.30;4.72;;;9.60;88.00;;;;;;4998976;28;20053;-80
2023/03/29 06:25:16;;;;;;;14.20;5.50;;;9.50;87.50;;;;;;4999395;28;20046;-80
2023/03/29 06:27:48;;;;;;;23.95;7.03;;;9.40;88.00;;;;;;4961432;28;20062;-79
2023/03/29 06:30:37;;;;;;;21.85;5.82;;;9.40;88.10;;;;;;4982047;28;20027;-81
2023/03/29 06:33:32;;;;;;;11.48;5.10;;;9.50;88.20;;;;;;4994691;28;20026;-82
2023/03/29 06:35:58;;;;;;;24.35;6.93;;;9.50;87.40;;;;;;5005201;28;20046;-82
2023/03/29 06:38:29;;;;;;;14.43;5.75;;;9.50;87.50;;;;;;5002742;28;20101;-81
2023/03/29 06:41:06;;;;;;;16.42;4.72;;;9.50;87.60;;;;;;5003240;28;20031;-80
2023/03/29 06:43:33;;;;;;;14.50;5.13;;;9.60;87.20;;;;;;4998898;28;20089;-82
2023/03/29 06:46:00;;;;;;;14.67;5.97;;;9.60;87.50;;;;;;5008683;28;20033;-80
2023/03/29 06:48:31;;;;;;;9.52;4.25;;;9.50;88.30;;;;;;5005524;28;20272;-82
2023/03/29 06:50:57;;;;;;;14.25;4.72;;;9.30;88.80;;;;;;5001692;28;20033;-80
2023/03/29 06:53:23;;;;;;;7.43;4.40;;;9.10;89.90;;;;;;4996961;28;20026;-83
2023/03/29 06:55:51;;;;;;;8.45;4.35;;;8.90;90.40;;;;;;5012797;28;20034;-81
2023/03/29 06:58:17;;;;;;;;;;;8.80;90.80;;;;;;5017687;28;20046;-81
2023/03/29 07:00:42;;;;;;;6.03;4.72;;;8.70;90.70;;;;;;5001642;28;19913;-81
2023/03/29 07:03:12;;;;;;;8.35;5.35;;;8.60;91.50;;;;;;5014960;28;20135;-82
2023/03/29 07:05:41;;;;;;;6.68;4.68;;;8.60;91.80;;;;;;5005817;28;20014;-81
2023/03/29 07:10:46;;;;;;;9.88;5.32;;;8.50;92.20;;;;;;5000420;28;20033;-82
2023/03/29 07:13:13;;;;;;;8.30;4.78;;;8.50;92.60;;;;;;5009270;28;20060;-80
2023/03/29 07:15:43;;;;;;;10.50;6.18;;;8.40;92.80;;;;;;5015734;28;20122;-80
2023/03/29 07:18:13;;;;;;;6.18;4.55;;;8.30;93.10;;;;;;4999564;28;20015;-81
2023/03/29 07:20:40;;;;;;;7.53;5.28;;;8.30;93.40;;;;;;5000646;28;20507;-82
2023/03/29 07:23:10;;;;;;;9.00;6.70;;;8.20;93.50;;;;;;4998900;28;20011;-80
2023/03/29 07:25:37;;;;;;;7.28;5.40;;;8.20;93.70;;;;;;4997874;28;20096;-80
2023/03/29 07:28:06;;;;;;;12.10;4.72;;;8.30;93.80;;;;;;4998219;28;20026;-80
2023/03/29 07:30:32;;;;;;;6.40;5.28;;;8.30;93.70;;;;;;4999305;28;20051;-81
2023/03/29 07:32:59;;;;;;;5.32;4.38;;;8.30;93.30;;;;;;4999617;28;20048;-81
2023/03/29 07:35:25;;;;;;;10.45;4.60;;;8.30;93.30;;;;;;4997615;28;20036;-82
2023/03/29 07:37:51;;;;;;;9.75;4.70;;;8.30;93.50;;;;;;4998587;28;20010;-82
2023/03/29 07:40:22;;;;;;;6.38;4.78;;;8.20;94.10;;;;;;5009635;28;20121;-82
2023/03/29 07:42:52;;;;;;;9.30;5.55;;;8.20;94.50;;;;;;4997694;28;20356;-82
2023/03/29 07:45:20;;;;;;;9.40;5.95;;;8.30;94.80;;;;;;4997069;28;20022;-81
2023/03/29 07:47:47;;;;;;;9.13;6.22;;;8.40;95.00;;;;;;4995419;28;20153;-80
2023/03/29 07:50:17;;;;;;;9.60;5.38;;;8.50;95.20;;;;;;4998162;28;20113;-82
2023/03/29 07:52:43;;;;;;;6.10;5.20;;;8.50;95.00;;;;;;5007600;28;20026;-82
2023/03/29 07:55:11;;;;;;;8.38;5.00;;;8.60;94.70;;;;;;4996979;28;20027;-82
2023/03/29 07:57:37;;;;;;;8.82;5.70;;;8.60;94.50;;;;;;4996351;28;20106;-82
2023/03/29 08:00:37;;;;;;;7.72;5.20;;;8.70;94.10;;;;;;4995272;28;20514;-81
2023/03/29 08:02:56;;;;;;;10.68;5.80;;;8.70;93.90;;;;;;5010357;28;20101;-80
2023/03/29 08:05:22;;;;;;;7.18;5.05;;;8.80;93.90;;;;;;5018230;28;20042;-80
2023/03/29 08:07:49;;;;;;;6.65;5.50;;;8.80;93.70;;;;;;4997002;28;20019;-82
2023/03/29 08:10:19;;;;;;;5.10;4.10;;;8.90;93.70;;;;;;4994707;28;20081;-80
2023/03/29 08:12:46;;;;;;;9.18;5.50;;;8.90;93.30;;;;;;4996324;28;20026;-80
2023/03/29 08:15:13;;;;;;;11.50;6.07;;;8.90;93.40;;;;;;4995928;28;20042;-81
2023/03/29 08:17:40;;;;;;;9.90;6.07;;;9.00;93.60;;;;;;4998784;28;20049;-80
2023/03/29 08:20:09;;;;;;;8.32;5.63;;;9.10;93.60;;;;;;5003387;28;20422;-81
2023/03/29 08:23:32;;;;;;;12.40;5.75;;;9.20;93.40;;;;;;4995289;28;20030;-82
2023/03/29 08:26:32;;;;;;;7.13;4.78;;;9.30;93.60;;;;;;4917364;29;20067;-82
2023/03/29 08:28:56;;;;;;;11.02;6.82;;;9.20;93.60;;;;;;4916763;29;20028;-80
2023/03/29 08:31:22;;;;;;;8.60;5.75;;;9.30;94.00;;;;;;4903242;29;20043;-82
2023/03/29 08:33:47;;;;;;;10.38;5.78;;;9.30;93.90;;;;;;4923719;29;20024;-78
2023/03/29 08:36:13;;;;;;;9.45;6.38;;;9.40;94.00;;;;;;4900630;29;20275;-81
2023/03/29 08:38:39;;;;;;;8.85;6.05;;;9.40;93.80;;;;;;4913147;29;20031;-82
2023/03/29 08:41:34;;;;;;;11.40;5.65;;;9.50;93.70;;;;;;4907997;29;20036;-80
2023/03/29 08:44:10;;;;;;;9.80;7.05;;;9.50;93.60;;;;;;4905566;29;20092;-83
2023/03/29 08:46:50;;;;;;;12.45;5.38;;;9.50;93.60;;;;;;4918519;29;20071;-80
2023/03/29 08:49:18;;;;;;;12.27;5.90;;;9.50;93.50;;;;;;4900557;29;20028;-82
2023/03/29 08:51:50;;;;;;;8.55;4.85;;;9.40;93.80;;;;;;4916170;29;20028;-81
2023/03/29 08:54:25;;;;;;;10.68;6.38;;;9.20;94.10;;;;;;4905304;29;20029;-81
2023/03/29 08:56:57;;;;;;;7.53;5.82;;;9.10;94.60;;;;;;4918308;29;20488;-82
2023/03/29 08:59:30;;;;;;;8.52;5.55;;;9.00;95.10;;;;;;4919161;29;20032;-80
2023/03/29 09:01:59;;;;;;;11.15;5.32;;;8.90;95.40;;;;;;4950021;28;20041;-80
2023/03/29 09:04:34;;;;;;;11.70;6.53;;;8.70;95.60;;;;;;5008563;28;20027;-80
2023/03/29 09:07:02;;;;;;;10.95;6.68;;;8.60;95.90;;;;;;5003140;28;20026;-80
2023/03/29 09:09:33;;;;;;;10.73;7.88;;;8.60;96.10;;;;;;5000742;28;20373;-81
2023/03/29 09:12:30;;;;;;;12.00;6.25;;;8.70;96.40;;;;;;4998325;28;20029;-82
2023/03/29 09:15:33;;;;;;;8.93;5.72;;;8.80;96.60;;;;;;4999482;28;20042;-81
2023/03/29 09:18:17;;;;;;;11.15;6.50;;;8.90;96.50;;;;;;4916055;29;20048;-82
2023/03/29 09:21:21;;;;;;;9.32;6.00;;;9.00;97.00;;;;;;4915381;29;20118;-81
2023/03/29 09:24:22;;;;;;;9.43;5.45;;;9.00;96.90;;;;;;4934948;29;20055;-81
2023/03/29 09:27:14;;;;;;;9.52;5.35;;;9.00;96.80;;;;;;4919428;29;20027;-81
2023/03/29 09:30:01;;;;;;;11.18;6.78;;;8.90;97.00;;;;;;4922840;29;20036;-83
2023/03/29 09:32:55;;;;;;;;;;;;;;;;;;;;;
2023/03/29 09:36:27;;;;;;;12.30;6.32;;;8.70;97.60;;;;;;4929591;29;20052;-82
2023/03/29 09:43:03;;;;;;;10.73;7.20;;;8.50;98.60;;;;;;4927593;29;20028;-82
2023/03/29 09:46:15;;;;;;;10.10;6.10;;;8.40;99.20;;;;;;4916402;29;20043;-82
2023/03/29 09:49:13;;;;;;;;;;;;;;;;;;;;;
2023/03/29 09:55:46;;;;;;;12.65;7.10;;;8.30;99.90;;;;;;4865352;29;20183;-80
2023/03/29 09:58:36;;;;;;;;;;;;;;;;;;;;;
2023/03/29 10:04:31;;;;;;;9.35;7.47;;;8.30;99.90;;;;;;4903994;29;20064;-82
2023/03/29 10:07:43;;;;;;;;;;;;;;;;;;;;;
2023/03/29 10:10:43;;;;;;;16.50;9.43;;;8.40;99.90;;;;;;4902437;29;20133;-82
2023/03/29 10:13:52;;;;;;;;;;;;;;;;;;;;;
2023/03/29 10:20:00;;;;;;;10.65;6.72;;;8.50;99.90;;;;;;4896841;29;20221;-83
2023/03/29 10:22:40;;;;;;;9.43;6.68;;;8.40;99.90;;;;;;4904654;29;20044;-84
2023/03/29 10:25:20;;;;;;;13.02;7.97;;;8.40;99.90;;;;;;4909749;29;20032;-82
2023/03/29 10:28:20;;;;;;;12.93;7.57;;;8.40;99.90;;;;;;4923387;29;20062;-81
2023/03/29 10:31:04;;;;;;;13.85;7.93;;;8.40;99.90;;;;;;4919623;29;20040;-82
2023/03/29 10:33:42;;;;;;;8.27;6.50;;;8.40;99.90;;;;;;4906631;29;20011;-81
2023/03/29 10:39:41;;;;;;;14.50;9.32;;;8.40;99.90;;;;;;4918226;29;20513;-82
2023/03/29 10:42:38;;;;;;;13.68;7.75;;;8.30;99.90;;;;;;5017015;28;20034;-81
2023/03/29 10:45:26;;;;;;;14.68;10.63;;;8.30;99.90;;;;;;4997367;28;20041;-81
2023/03/29 10:47:57;;;;;;;12.77;8.50;;;8.30;99.90;;;;;;4998710;28;20038;-79
2023/03/29 10:50:37;;;;;;;10.48;7.68;;;8.30;99.90;;;;;;4996637;28;20114;-80
2023/03/29 10:53:27;;;;;;;10.57;7.90;;;8.30;99.90;;;;;;4997198;28;20038;-80
2023/03/29 10:55:56;;;;;;;11.05;8.70;;;8.30;99.90;;;;;;4994812;28;20468;-82
2023/03/29 10:58:32;;;;;;;16.90;10.30;;;8.30;99.90;;;;;;5013181;28;20034;-81
2023/03/29 11:01:01;;;;;;;20.00;14.77;;;8.50;99.90;;;;;;5000178;28;20041;-82
2023/03/29 11:03:52;;;;;;;11.60;9.27;;;8.50;99.90;;;;;;5017886;28;20052;-81
2023/03/29 11:06:37;;;;;;;14.85;9.80;;;8.50;99.90;;;;;;4996591;28;20484;-82
2023/03/29 11:09:19;;;;;;;14.50;9.20;;;8.40;99.90;;;;;;5011376;28;20070;-81
2023/03/29 11:12:20;;;;;;;17.30;9.43;;;8.30;99.90;;;;;;5002216;28;20027;-81
2023/03/29 11:15:24;;;;;;;14.52;9.32;;;8.20;99.90;;;;;;4990881;28;20062;-81
2023/03/29 11:18:12;;;;;;;12.05;8.30;;;8.20;99.90;;;;;;4983896;28;20073;-81
2023/03/29 11:21:09;;;;;;;11.93;8.05;;;8.20;99.90;;;;;;5010912;28;20379;-82
2023/03/29 11:23:38;;;;;;;19.10;9.52;;;8.20;99.90;;;;;;4995752;28;20027;-81
2023/03/29 11:26:10;;;;;;;11.65;8.27;;;8.20;99.90;;;;;;5005532;28;20027;-82
2023/03/29 11:28:45;;;;;;;12.65;9.25;;;8.20;99.90;;;;;;4994542;28;20478;-81
2023/03/29 11:31:19;;;;;;;11.82;8.55;;;8.10;99.90;;;;;;4997310;28;20022;-82
2023/03/29 11:34:11;;;;;;;13.90;8.15;;;8.10;99.90;;;;;;4996095;28;20057;-82
2023/03/29 11:36:51;;;;;;;11.52;7.57;;;8.10;99.90;;;;;;4993115;28;20822;-82
2023/03/29 11:39:46;;;;;;;13.13;7.28;;;8.10;99.90;;;;;;5010397;28;20030;-81
2023/03/29 11:42:27;;;;;;;7.20;6.05;;;8.00;99.90;;;;;;4982215;28;20058;-82
2023/03/29 11:44:56;;;;;;;16.50;8.60;;;8.00;99.90;;;;;;5011052;28;20026;-81
2023/03/29 11:47:31;;;;;;;8.20;6.70;;;8.00;99.90;;;;;;4999416;28;20030;-82
2023/03/29 11:50:05;;;;;;;13.65;8.23;;;8.00;99.90;;;;;;4995079;28;20026;-82
2023/03/29 11:52:48;;;;;;;17.63;9.38;;;8.10;99.90;;;;;;4995150;28;20025;-81
2023/03/29 11:55:29;;;;;;;12.18;7.30;;;8.10;99.90;;;;;;4995617;28;20456;-81
2023/03/29 11:57:57;;;;;;;11.02;7.60;;;8.10;99.90;;;;;;4995360;28;20365;-82
2023/03/29 12:00:31;;;;;;;10.68;6.45;;;8.10;99.90;;;;;;4993664;28;20041;-82
2023/03/29 12:03:18;;;;;;;8.40;6.88;;;8.00;99.90;;;;;;4983986;28;20395;-80
2023/03/29 12:06:16;;;;;;;9.80;7.50;;;8.00;99.90;;;;;;4994895;28;20106;-82
2023/03/29 12:09:01;;;;;;;12.73;7.78;;;8.10;99.90;;;;;;4994469;28;20034;-82
2023/03/29 12:11:34;;;;;;;11.85;8.50;;;8.20;99.90;;;;;;4995098;28;20030;-80
2023/03/29 12:14:14;;;;;;;10.95;7.57;;;8.20;99.90;;;;;;4996511;28;20037;-82
2023/03/29 12:17:27;;;;;;;10.65;7.82;;;8.20;99.90;;;;;;4950100;28;1441129;-81
2023/03/29 12:19:59;;;;;;;10.30;7.38;;;8.30;99.90;;;;;;4929040;29;20181;-81
2023/03/29 12:22:28;;;;;;;12.30;8.15;;;8.30;99.90;;;;;;4999004;28;20074;-82
2023/03/29 12:24:56;;;;;;;9.85;7.80;;;8.20;99.90;;;;;;4998391;28;20033;-82
2023/03/29 12:27:47;;;;;;;14.02;8.82;;;8.10;99.90;;;;;;4998002;28;20022;-82
2023/03/29 12:30:40;;;;;;;12.10;8.55;;;8.10;99.90;;;;;;4996268;28;20023;-81
2023/03/29 12:33:31;;;;;;;12.15;8.05;;;8.10;99.90;;;;;;5008359;28;20427;-82
2023/03/29 12:36:12;;;;;;;11.75;8.13;;;8.10;99.90;;;;;;4994924;28;20037;-81
2023/03/29 12:38:39;;;;;;;12.88;8.60;;;8.00;99.90;;;;;;5010092;28;20500;-80
2023/03/29 12:41:20;;;;;;;10.05;7.10;;;8.00;99.90;;;;;;4995036;28;20176;-81
2023/03/29 12:43:47;;;;;;;14.13;8.95;;;8.00;99.90;;;;;;4995057;28;20034;-81
2023/03/29 12:46:25;;;;;;;7.93;6.68;;;8.00;99.90;;;;;;4993611;28;20029;-81
2023/03/29 12:49:04;;;;;;;14.65;7.25;;;7.90;99.90;;;;;;4994985;28;20034;-83
2023/03/29 12:51:35;;;;;;;12.88;7.80;;;7.90;99.90;;;;;;4994521;28;20018;-83
2023/03/29 12:54:18;;;;;;;10.40;7.85;;;7.80;99.90;;;;;;4993302;28;20080;-82
2023/03/29 12:57:17;;;;;;;14.05;8.05;;;7.80;99.90;;;;;;4996115;28;20062;-79
2023/03/29 12:59:46;;;;;;;10.23;7.90;;;7.80;99.90;;;;;;5014515;28;20431;-80
2023/03/29 13:02:12;;;;;;;13.05;9.10;;;7.80;99.90;;;;;;4997320;28;20029;-82
2023/03/29 13:04:54;;;;;;;8.00;7.20;;;7.90;99.90;;;;;;4995354;28;20080;-82
2023/03/29 13:07:25;;;;;;;13.07;7.90;;;7.90;99.90;;;;;;4995465;28;20396;-82
2023/03/29 13:09:52;;;;;;;9.48;6.40;;;7.90;99.90;;;;;;4996836;28;20103;-81
2023/03/29 13:12:40;;;;;;;9.10;6.80;;;7.80;99.90;;;;;;4996449;28;20380;-81
2023/03/29 13:15:21;;;;;;;10.18;6.25;;;7.80;99.90;;;;;;4995334;28;20034;-81
2023/03/29 13:18:07;;;;;;;7.43;5.47;;;7.80;99.90;;;;;;4995082;28;20372;-80
2023/03/29 13:20:50;;;;;;;9.73;5.65;;;7.80;99.90;;;;;;5009916;28;20137;-81
2023/03/29 13:23:57;;;;;;;7.53;5.70;;;7.80;99.90;;;;;;4994480;28;20018;-81
2023/03/29 13:26:39;;;;;;;8.52;5.45;;;7.80;99.90;;;;;;4994278;28;20018;-81
2023/03/29 13:29:42;;;;;;;10.13;6.50;;;7.70;99.90;;;;;;5003019;28;20062;-81
2023/03/29 13:32:26;;;;;;;9.63;5.80;;;7.70;99.90;;;;;;4970716;28;20030;-81
2023/03/29 13:35:19;;;;;;;6.68;5.22;;;7.60;99.90;;;;;;5010735;28;20096;-82
2023/03/29 13:38:17;;;;;;;8.75;6.53;;;7.50;99.90;;;;;;5011141;28;20423;-83
2023/03/29 13:41:50;;;;;;;9.07;6.20;;;7.50;99.90;;;;;;4992386;28;20042;-82
2023/03/29 13:44:39;;;;;;;8.55;5.40;;;7.50;99.90;;;;;;4933251;29;20023;-81
2023/03/29 13:47:27;;;;;;;10.05;7.15;;;7.50;99.90;;;;;;5007948;28;20026;-82
2023/03/29 13:49:57;;;;;;;8.27;6.40;;;7.40;99.90;;;;;;4993631;28;20025;-80
2023/03/29 13:53:05;;;;;;;6.90;6.05;;;7.40;99.90;;;;;;4992611;28;20025;-81
2023/03/29 13:55:36;;;;;;;9.95;6.70;;;7.40;99.90;;;;;;4917668;29;20043;-81
2023/03/29 13:58:38;;;;;;;10.60;7.47;;;7.50;99.90;;;;;;4918623;29;20038;-81
2023/03/29 14:01:48;;;;;;;6.93;5.25;;;7.50;99.90;;;;;;4927300;29;20044;-82
2023/03/29 14:04:20;;;;;;;11.05;8.35;;;7.50;99.90;;;;;;4938860;29;20027;-80
2023/03/29 14:06:52;;;;;;;12.43;7.57;;;7.50;99.90;;;;;;4938194;29;20040;-83
2023/03/29 14:09:40;;;;;;;10.23;6.80;;;7.50;99.90;;;;;;4926547;29;20028;-82
2023/03/29 14:12:08;;;;;;;10.35;6.57;;;7.50;99.90;;;;;;4930312;28;20066;-82
2023/03/29 14:14:35;;;;;;;11.50;8.05;;;7.60;99.90;;;;;;4907374;29;20047;-81
2023/03/29 14:17:01;;;;;;;9.13;6.82;;;7.50;99.90;;;;;;4939836;29;20119;-82
2023/03/29 14:19:31;;;;;;;9.57;6.38;;;7.60;99.90;;;;;;4931412;29;20063;-80